Arcadia, WI

5:16 AM CST en Febrero 25, 2017 (GMT -0600)
Dodge | | Change Station
Aviso en curso: Flood Warning Aviso activo: Public Information Statement

Alt 735 ft 44.14 °N, 91.57 °W | Updated 6 minutes ago

Despejado
Despejado
15.4 ° F
Sensación térmica 15 ° F
N
0.0
Viento Variable Viento desde Oeste
Gusts 0.0 mph

Hoy
Alta -- | Baja -- ° F
--% Posibilidad de precipitaciones
Ayer
Alta -- | Baja -- ° F
Precip. -- pul
Presión 29.86 pul
Visibilidad 7.0 Millas
Nubes Nubes dispersas 3000 ft
Vientos helados 15 ° F
Punto de rocío 10 ° F
Humedad 78%
Precipitaciones 0.00 pul
Espesor de la nieve No disponible.
6:49 AM 5:49 PM
Creciente menguante, 2% visible
METAR KONA 251112Z AUTO 32011G23KT 7SM SCT030 M08/M12 A2986 RMK AO2
Presión 29.86 pul
Visibilidad 7.0 Millas
Nubes Nubes dispersas 3000 ft
Vientos helados 15 ° F
Punto de rocío 10 ° F
Humedad 78%
Precipitaciones 0.00 pul
Espesor de la nieve No disponible.
6:49 AM 5:49 PM
Creciente menguante, 2% visible
METAR KONA 251112Z AUTO 32011G23KT 7SM SCT030 M08/M12 A2986 RMK AO2

Get Your Daily Forecast Email!

Thanks for signing up!

Be on the lookout for a verification email in your inbox.

You'll start receiving the daily forecast at 8 AM.

×

10-Day Weather Forecast

Almanac

Astronomía

Feb. 25, 2017 Salida Puesta
Hora real
Crepúsculo civil
Crepúsculo náutico
Crepúsculo astronómico
Luna
Horas de luz
Horas de luz
Tomorrow will be .
, % of the Moon is Illuminated

Extremos de hoy

Máximos del estado Bajos del estado

Community

WunderPhotos

Upload Photos

1,962,540 ¡fotos cargadas!

WunderBlog® & News

Nearby

Calidad del aire

  Calidad del aire Índice AQ Contaminante
Not available.

Grosos de nieve

Estación Profundido Altura

Actividad de terremotos

Ciudad Distance Mag. Tiempo y dato
Magnitud mínima muestra es 2,5.

Temperaturas de aguas costeras

Lugar Temperatura

Stations

Estaciones meteorológicas cercanas

Ubicación de la estación Temp. Vientos helados Punto de rocío Humedad Viento Precip. Alt Actualizado Tipo
                   

Watches & Warnings

Flood Warning
Issued: 3:55 AM CST Feb. 25, 2017 – National Weather Service

The Flood Warning continues for
the Black River near Galesville.
* Until Sunday afternoon... or until the warning is cancelled.
* At 2:45 am Saturday the stage was 12.7 feet.
* Flood stage is 12.0 feet.
* Minor flooding is occurring and minor flooding is forecast.
* Forecast... the river will continue to fall... dropping below flood
stage by this evening.
* Impact... at 12.0 feet... flooding mainly impacts wildlands and
agricultural pasture land. However the approach to the south end of
the County Road vv bridge over the Black River may be flooded.


Lat... Lon 4413 9100 4407 9133 4395 9138 4393 9135 4411 9097